Time;durP1;ratioP1;P1;durP2;ratioP2;P2;SDS_P1;SDS_P2;PMS_P1;PMS_P2;Temp;Humidity;BMP_temperature;BMP_pressure;BME280_temperature;BME280_humidity;BME280_pressure;Samples;Min_cycle;Max_cycle;Signal;HPM_P1;HPM_P2
2023/01/13 00:00:40;;;;;;;22.58;3.25;;;;;;;6.57;100.00;100442.13;5071863;28;20019;-77
2023/01/13 00:03:06;;;;;;;21.63;3.70;;;;;;;6.49;100.00;100437.91;5071177;28;20025;-77
2023/01/13 00:05:31;;;;;;;21.45;3.30;;;;;;;6.54;100.00;100454.25;5073401;28;20486;-77
2023/01/13 00:07:56;;;;;;;20.65;3.05;;;;;;;6.33;100.00;100427.72;5076055;28;20021;-77
2023/01/13 00:10:22;;;;;;;22.55;2.95;;;;;;;6.42;100.00;100450.06;5075070;28;20078;-77
2023/01/13 00:12:47;;;;;;;19.38;3.05;;;;;;;6.40;100.00;100458.72;5075848;28;20471;-77
2023/01/13 00:15:12;;;;;;;22.67;3.75;;;;;;;6.40;100.00;100463.91;5074916;28;20021;-77
2023/01/13 00:17:38;;;;;;;23.40;3.13;;;;;;;6.33;100.00;100463.97;5075575;28;20447;-77
2023/01/13 00:20:04;;;;;;;26.73;3.60;;;;;;;6.22;100.00;100439.97;5075754;28;20024;-77
2023/01/13 00:22:33;;;;;;;27.02;3.92;;;;;;;6.15;100.00;100440.91;5074614;28;20028;-77
2023/01/13 00:25:00;;;;;;;25.45;3.47;;;;;;;6.00;100.00;100412.63;5075749;28;20032;-77
2023/01/13 00:27:26;;;;;;;19.25;3.00;;;;;;;6.06;100.00;100418.59;5075374;28;20388;-76
2023/01/13 00:29:51;;;;;;;26.73;3.80;;;;;;;6.00;100.00;100412.63;5074768;28;20088;-76
2023/01/13 00:32:16;;;;;;;31.08;4.47;;;;;;;6.04;100.00;100425.50;5074991;28;20468;-76
2023/01/13 00:34:42;;;;;;;22.70;2.90;;;;;;;6.00;100.00;100418.66;5075194;28;20029;-76
2023/01/13 00:37:07;;;;;;;28.40;4.13;;;;;;;5.96;100.00;100416.97;5074792;28;20013;-76
2023/01/13 00:39:32;;;;;;;26.13;4.35;;;;;;;5.96;100.00;100413.53;5075124;28;20456;-75
2023/01/13 00:44:41;;;;;;;24.77;3.35;;;;;;;5.88;100.00;100403.22;5074398;28;20058;-76
2023/01/13 00:47:07;;;;;;;26.77;4.00;;;;;;;5.84;100.00;100407.56;5075081;28;20033;-76
2023/01/13 00:49:32;;;;;;;26.95;3.75;;;;;;;5.76;100.00;100396.47;5074875;28;20024;-76
2023/01/13 00:51:57;;;;;;;27.23;3.83;;;;;;;5.67;100.00;100380.19;5074483;28;20099;-76
2023/01/13 00:54:23;;;;;;;32.90;3.53;;;;;;;5.74;100.00;100393.03;5074580;28;20044;-76
2023/01/13 00:56:48;;;;;;;26.75;3.75;;;;;;;5.87;100.00;100394.59;5072396;28;20460;-76
2023/01/13 00:59:13;;;;;;;25.80;4.22;;;;;;;5.83;100.00;100394.69;5072225;28;20055;-76
2023/01/13 01:01:40;;;;;;;32.95;3.88;;;;;;;5.87;100.00;100404.97;5075222;28;20074;-76
2023/01/13 01:04:05;;;;;;;30.70;3.60;;;;;;;5.93;100.00;100408.41;5074850;28;20021;-76
2023/01/13 01:06:31;;;;;;;31.25;3.97;;;;;;;5.91;100.00;100412.69;5073746;28;20043;-76
2023/01/13 01:08:57;;;;;;;29.98;3.88;;;;;;;5.94;100.00;100412.69;5074824;28;20028;-76
2023/01/13 01:11:28;;;;;;;25.45;4.47;;;;;;;5.92;100.00;100416.97;5073653;28;20020;-76
2023/01/13 01:13:56;;;;;;;23.00;3.75;;;;;;;5.94;100.00;100420.44;5074570;28;20455;-77
2023/01/13 01:16:24;;;;;;;27.48;4.03;;;;;;;5.93;100.00;100411.00;5074216;28;20096;-76
2023/01/13 01:18:51;;;;;;;29.98;3.30;;;;;;;6.07;100.00;100428.06;5074072;28;20112;-76
2023/01/13 01:21:17;;;;;;;30.52;3.80;;;;;;;6.13;100.00;100421.09;5073964;28;20032;-76
2023/01/13 01:23:43;;;;;;;17.67;3.25;;;;;;;6.10;100.00;100409.91;5074455;28;20107;-76
2023/01/13 01:26:22;;;;;;;24.45;3.60;;;;;;;6.15;100.00;100412.44;5073461;28;20112;-76
2023/01/13 01:28:48;;;;;;;25.92;3.47;;;;;;;6.14;100.00;100415.03;5074412;28;20033;-76
2023/01/13 01:31:17;;;;;;;31.67;3.47;;;;;;;5.94;100.00;100394.56;5073880;28;20468;-76
2023/01/13 01:33:43;;;;;;;27.90;3.75;;;;;;;6.03;100.00;100417.75;5073908;28;20056;-76
2023/01/13 01:36:10;;;;;;;29.73;3.92;;;;;;;5.95;100.00;100425.63;5074234;28;20112;-76
2023/01/13 01:38:36;;;;;;;25.92;3.60;;;;;;;5.91;100.00;100415.28;5074399;28;20029;-76
2023/01/13 01:41:02;;;;;;;26.77;3.90;;;;;;;5.91;100.00;100420.44;5073677;28;20525;-76
2023/01/13 01:43:58;;;;;;;24.27;3.78;;;;;;;5.84;100.00;100438.63;5073750;28;20471;-76
2023/01/13 01:46:25;;;;;;;38.00;5.05;;;;;;;5.85;100.00;100429.13;5073677;28;20028;-76
2023/01/13 01:48:53;;;;;;;36.15;3.78;;;;;;;5.81;100.00;100419.69;5073483;28;20021;-76
2023/01/13 01:51:19;;;;;;;32.50;4.38;;;;;;;5.84;100.00;100415.34;5073673;28;20025;-76
2023/01/13 01:53:46;;;;;;;36.45;4.72;;;;;;;5.76;100.00;100401.66;5072921;28;20059;-76
2023/01/13 01:56:12;;;;;;;32.25;4.97;;;;;;;5.69;100.00;100404.28;5073535;28;20040;-76
2023/01/13 01:58:46;;;;;;;30.27;4.93;;;;;;;5.72;100.00;100420.66;5070741;28;20029;-76
2023/01/13 02:01:12;;;;;;;;;;;;;;;5.70;100.00;100422.41;5073254;28;20025;-76
2023/01/13 02:03:42;;;;;;;22.67;4.78;;;;;;;5.71;100.00;100420.66;5073791;28;20423;-76
2023/01/13 02:06:07;;;;;;;28.38;4.60;;;;;;;5.73;100.00;100414.63;5073419;28;20460;-76
2023/01/13 02:08:34;;;;;;;37.63;4.93;;;;;;;5.53;100.00;100409.63;5072899;28;20127;-76
2023/01/13 02:10:59;;;;;;;31.90;5.13;;;;;;;5.58;100.00;100402.69;5073670;28;20027;-76
2023/01/13 02:13:25;;;;;;;27.60;4.22;;;;;;;5.56;100.00;100411.34;5073553;28;20138;-77
2023/01/13 02:16:04;;;;;;;38.22;5.50;;;;;;;5.61;100.00;100409.56;5072834;28;20028;-76
2023/01/13 02:19:14;;;;;;;29.38;5.15;;;;;;;5.55;100.00;100419.94;5073234;28;20027;-76
2023/01/13 02:22:00;;;;;;;38.55;5.10;;;;;;;5.57;100.00;100416.50;5073246;28;20030;-76
2023/01/13 02:24:56;;;;;;;35.05;5.13;;;;;;;5.52;100.00;100425.16;5072853;28;20605;-76
2023/01/13 02:27:30;;;;;;;32.78;5.88;;;;;;;5.47;100.00;100417.44;5072535;28;20028;-77
2023/01/13 02:33:33;;;;;;;36.33;5.75;;;;;;;5.40;100.00;100421.81;5073071;28;20039;-76
2023/01/13 02:36:34;;;;;;;30.50;5.10;;;;;;;5.49;100.00;100441.53;5072315;28;20032;-76
2023/01/13 02:39:08;;;;;;;42.88;5.85;;;;;;;5.55;100.00;100430.28;5066095;28;20556;-76
2023/01/13 02:44:46;;;;;;;28.50;5.07;;;;;;;5.61;100.00;100409.56;5072672;28;20450;-77
2023/01/13 02:47:24;;;;;;;44.88;5.25;;;;;;;5.64;100.00;100406.94;5072612;28;20052;-76
2023/01/13 02:49:55;;;;;;;32.67;5.65;;;;;;;5.61;100.00;100397.47;5072180;28;20032;-76
2023/01/13 02:52:46;;;;;;;30.17;5.63;;;;;;;5.71;100.00;100413.75;5072219;28;20119;-76
2023/01/13 02:55:16;;;;;;;28.90;4.53;;;;;;;5.78;100.00;100407.63;5065121;28;20045;-76
2023/01/13 02:57:43;;;;;;;28.92;4.65;;;;;;;5.82;100.00;100406.75;5064418;28;20039;-76
2023/01/13 03:00:11;;;;;;;38.50;5.13;;;;;;;5.82;100.00;100390.34;5072526;28;20034;-76
2023/01/13 03:02:37;;;;;;;23.30;4.22;;;;;;;5.94;100.00;100387.66;5072457;28;20468;-76
2023/01/13 03:05:03;;;;;;;32.50;4.30;;;;;;;5.96;100.00;100388.53;5071889;28;20104;-76
2023/01/13 03:08:04;;;;;;;27.00;4.57;;;;;;;5.97;100.00;100397.13;5072412;28;20032;-76
2023/01/13 03:10:50;;;;;;;29.65;3.65;;;;;;;6.03;100.00;100384.97;5072097;28;20460;-76
2023/01/13 03:13:51;;;;;;;29.20;4.10;;;;;;;5.96;100.00;100382.50;5071357;28;20029;-75
2023/01/13 03:16:19;;;;;;;22.63;4.25;;;;;;;6.06;100.00;100379.75;5072072;28;20036;-75
2023/01/13 03:19:00;;;;;;;31.35;3.72;;;;;;;6.05;100.00;100387.56;5071417;28;20556;-76
2023/01/13 03:21:37;;;;;;;25.25;3.70;;;;;;;6.14;100.00;100381.41;5071999;28;20032;-76
2023/01/13 03:24:16;;;;;;;22.42;4.03;;;;;;;6.11;100.00;100364.16;5072555;28;20468;-76
2023/01/13 03:26:48;;;;;;;26.65;3.72;;;;;;;6.15;100.00;100386.56;5071224;28;20051;-76
2023/01/13 03:29:20;;;;;;;21.58;2.95;;;;;;;6.19;100.00;100393.41;5072286;28;20031;-76
2023/01/13 03:31:58;;;;;;;19.27;3.30;;;;;;;6.22;100.00;100387.34;5072160;28;20025;-76
2023/01/13 03:34:29;;;;;;;19.38;3.63;;;;;;;6.26;100.00;100379.50;5071685;28;20036;-76
2023/01/13 03:36:56;;;;;;;19.08;2.83;;;;;;;6.27;100.00;100373.44;5072408;28;20063;-76
2023/01/13 03:39:30;;;;;;;17.95;2.60;;;;;;;6.10;100.00;100376.25;5070442;28;20028;-76
2023/01/13 03:41:58;;;;;;;;;;;;;;;6.01;100.00;100394.47;5072519;28;20072;-76
2023/01/13 03:44:32;;;;;;;6.32;1.25;;;;;;;6.00;100.00;100391.91;5071600;28;19912;-76
2023/01/13 03:47:14;;;;;;;7.65;1.77;;;;;;;6.00;100.00;100387.59;5071451;28;20020;-76
2023/01/13 03:49:51;;;;;;;9.90;1.38;;;;;;;6.04;100.00;100396.19;5072391;28;20025;-76
2023/01/13 03:52:23;;;;;;;9.48;1.63;;;;;;;6.08;100.00;100384.91;5071396;28;20031;-76
2023/01/13 03:54:55;;;;;;;10.75;1.45;;;;;;;6.06;100.00;100374.59;5071565;28;20028;-76
2023/01/13 03:57:26;;;;;;;5.93;1.58;;;;;;;6.04;100.00;100372.88;5067450;28;20096;-76
2023/01/13 03:59:56;;;;;;;7.15;1.23;;;;;;;6.01;100.00;100373.78;5072223;28;20032;-77
2023/01/13 04:02:36;;;;;;;7.97;1.20;;;;;;;6.08;100.00;100371.97;5070906;28;20081;-76
2023/01/13 04:05:04;;;;;;;9.63;1.40;;;;;;;6.09;100.00;100378.88;5071858;28;20040;-76
2023/01/13 04:07:51;;;;;;;7.05;1.60;;;;;;;6.12;100.00;100384.00;5071118;28;20025;-76
2023/01/13 04:10:22;;;;;;;7.78;1.70;;;;;;;6.04;100.00;100389.25;5071580;28;20032;-76
2023/01/13 04:13:01;;;;;;;9.45;1.80;;;;;;;6.02;100.00;100391.03;5071836;28;20028;-76
2023/01/13 04:15:33;;;;;;;7.88;1.98;;;;;;;5.99;100.00;100395.41;5070748;28;20063;-76
2023/01/13 04:18:22;;;;;;;9.95;2.03;;;;;;;5.90;100.00;100387.69;5071596;28;20020;-76
2023/01/13 04:20:50;;;;;;;11.60;2.22;;;;;;;5.85;100.00;100383.44;5071936;28;20028;-76
2023/01/13 04:23:17;;;;;;;17.13;2.85;;;;;;;5.79;100.00;100411.97;5070433;28;20459;-76
2023/01/13 04:25:43;;;;;;;13.80;2.85;;;;;;;5.76;100.00;100398.22;5071834;28;20112;-76
2023/01/13 04:28:10;;;;;;;17.38;3.00;;;;;;;5.80;100.00;100394.72;5070885;28;20078;-76
2023/01/13 04:30:36;;;;;;;11.50;2.70;;;;;;;5.85;100.00;100398.97;5071166;28;20418;-76
2023/01/13 04:33:02;;;;;;;14.13;2.65;;;;;;;5.94;100.00;100404.94;5071839;28;20020;-76
2023/01/13 04:35:28;;;;;;;16.85;3.22;;;;;;;5.97;100.00;100400.56;5070897;28;20027;-76
2023/01/13 04:37:53;;;;;;;11.45;2.85;;;;;;;6.03;100.00;100408.25;5071718;28;20639;-76
2023/01/13 04:40:19;;;;;;;16.20;2.35;;;;;;;5.98;100.00;100385.91;5071056;28;20460;-76
2023/01/13 04:42:44;;;;;;;11.93;2.92;;;;;;;6.05;100.00;100403.94;5070792;28;20040;-76
2023/01/13 04:45:10;;;;;;;13.57;2.58;;;;;;;6.04;100.00;100401.34;5071161;28;20021;-76
2023/01/13 04:47:35;;;;;;;19.90;3.17;;;;;;;6.03;100.00;100397.06;5071507;28;20099;-76
2023/01/13 04:50:01;;;;;;;19.40;3.03;;;;;;;6.06;100.00;100412.56;5070619;28;20056;-76
2023/01/13 04:52:26;;;;;;;9.55;2.30;;;;;;;6.00;100.00;100395.34;5074155;28;20087;-76
2023/01/13 04:54:51;;;;;;;17.48;2.85;;;;;;;6.04;100.00;100407.38;5075031;28;20024;-76
2023/01/13 04:57:16;;;;;;;17.17;3.30;;;;;;;5.82;100.00;100372.25;5070933;28;20167;-76
2023/01/13 04:59:42;;;;;;;18.08;2.75;;;;;;;5.90;100.00;100380.78;5074818;28;20009;-76
2023/01/13 05:02:08;;;;;;;17.73;2.75;;;;;;;5.84;100.00;100388.63;5075098;28;20047;-76
2023/01/13 05:04:34;;;;;;;22.63;3.17;;;;;;;5.93;100.00;100401.50;5074118;28;20044;-76
2023/01/13 05:06:59;;;;;;;18.90;3.05;;;;;;;5.87;100.00;100386.84;5074919;28;20055;-76
2023/01/13 05:09:24;;;;;;;11.13;3.05;;;;;;;5.82;100.00;100380.00;5074488;28;20024;-76
2023/01/13 05:17:21;;;;;;;22.13;2.83;;;;;;;5.79;100.00;100386.09;5074487;28;19919;-76
2023/01/13 05:19:47;;;;;;;17.27;2.38;;;;;;;5.68;100.00;100372.41;5074162;28;20077;-76
2023/01/13 05:27:41;;;;;;;;;;;;;;;5.67;100.00;100385.38;5075163;28;20094;-76
2023/01/13 05:30:08;;;;;;;15.87;3.40;;;;;;;5.63;100.00;100393.16;5074295;28;20345;-76
2023/01/13 05:32:33;;;;;;;14.02;2.10;;;;;;;5.59;100.00;100391.47;5073292;28;20742;-76
2023/01/13 05:34:58;;;;;;;16.17;2.78;;;;;;;5.56;100.00;100388.94;5074150;28;20081;-76
2023/01/13 05:37:24;;;;;;;12.60;2.75;;;;;;;5.60;100.00;100402.69;5074202;28;20028;-76
2023/01/13 05:45:17;;;;;;;;;;;;;;;5.47;100.00;100408.84;5074422;28;20158;-76
2023/01/13 05:47:43;;;;;;;11.93;2.23;;;;;;;5.39;100.00;100408.91;5073250;28;20412;-76
2023/01/13 05:50:09;;;;;;;16.60;2.80;;;;;;;5.39;100.00;100416.66;5074119;28;20279;-76
2023/01/13 05:52:34;;;;;;;12.98;2.17;;;;;;;5.44;100.00;100411.47;5073810;28;20043;-76
2023/01/13 05:55:00;;;;;;;18.17;2.70;;;;;;;5.49;100.00;100417.44;5073148;28;20028;-76
2023/01/13 05:57:25;;;;;;;11.90;2.38;;;;;;;5.44;100.00;100412.31;5070800;28;20021;-76
2023/01/13 05:59:50;;;;;;;20.35;2.50;;;;;;;5.47;100.00;100425.22;5072918;28;20025;-76
2023/01/13 06:02:16;;;;;;;19.95;2.50;;;;;;;5.39;100.00;100421.81;5072854;28;20040;-76
2023/01/13 06:04:41;;;;;;;15.90;2.85;;;;;;;5.40;100.00;100421.81;5073680;28;20028;-76
2023/01/13 06:07:06;;;;;;;14.32;2.50;;;;;;;5.36;100.00;100421.84;5073066;28;20021;-76
2023/01/13 06:09:32;;;;;;;18.45;2.58;;;;;;;5.38;100.00;100418.38;5073567;28;20021;-76
2023/01/13 06:11:57;;;;;;;12.93;2.42;;;;;;;5.43;100.00;100426.13;5073652;28;20486;-76
2023/01/13 06:14:22;;;;;;;17.42;2.85;;;;;;;5.36;100.00;100427.00;5072278;28;20032;-75
2023/01/13 06:16:47;;;;;;;17.92;2.75;;;;;;;5.38;100.00;100430.47;5073740;28;20098;-76
2023/01/13 06:19:13;;;;;;;15.70;2.55;;;;;;;5.44;100.00;100439.91;5073057;28;20078;-76
2023/01/13 06:21:39;;;;;;;15.48;2.70;;;;;;;5.40;100.00;100447.69;5072688;28;20036;-76
2023/01/13 06:24:06;;;;;;;20.50;3.22;;;;;;;5.29;100.00;100451.22;5073678;28;20082;-76
2023/01/13 06:26:37;;;;;;;15.02;2.20;;;;;;;5.30;100.00;100456.38;5072912;28;20024;-76
2023/01/13 06:29:02;;;;;;;12.63;2.45;;;;;;;5.27;100.00;100458.13;5072720;28;20112;-76
2023/01/13 06:31:29;;;;;;;13.18;2.78;;;;;;;5.25;100.00;100458.13;5072827;28;20143;-76
2023/01/13 06:34:04;;;;;;;17.25;3.00;;;;;;;5.29;100.00;100459.81;5073077;28;20499;-76
2023/01/13 06:36:34;;;;;;;14.82;2.88;;;;;;;5.29;100.00;100474.47;5071941;28;20107;-76
2023/01/13 06:39:01;;;;;;;19.33;3.13;;;;;;;5.29;100.00;100472.75;5072214;28;20431;-76
2023/01/13 06:44:13;;;;;;;13.82;2.92;;;;;;;5.39;100.00;100471.81;5072483;28;20085;-76
2023/01/13 06:46:39;;;;;;;10.80;2.20;;;;;;;5.48;100.00;100468.28;5072943;28;20431;-76
2023/01/13 06:49:05;;;;;;;18.65;3.47;;;;;;;5.61;100.00;100467.31;5072113;28;20035;-76
2023/01/13 06:51:30;;;;;;;13.25;2.58;;;;;;;5.70;100.00;100466.38;5072657;28;20097;-76
2023/01/13 06:53:55;;;;;;;15.93;3.33;;;;;;;5.72;100.00;100471.50;5072495;28;20136;-76
2023/01/13 06:56:21;;;;;;;15.90;3.17;;;;;;;5.71;100.00;100457.72;5071850;28;20028;-76
2023/01/13 06:58:46;;;;;;;13.73;2.90;;;;;;;5.85;100.00;100460.16;5070814;28;20491;-76
2023/01/13 07:01:11;;;;;;;17.58;3.03;;;;;;;5.85;100.00;100461.06;5072339;28;20038;-76
2023/01/13 07:03:36;;;;;;;18.52;2.72;;;;;;;5.85;100.00;100450.72;5072019;28;20128;-76
2023/01/13 07:06:03;;;;;;;17.13;3.92;;;;;;;5.89;100.00;100461.03;5072440;28;20070;-76
2023/01/13 07:08:29;;;;;;;15.38;2.47;;;;;;;5.84;100.00;100448.97;5072081;28;20454;-76
2023/01/13 07:10:54;;;;;;;17.73;2.75;;;;;;;5.82;100.00;100471.44;5071769;28;20154;-76
2023/01/13 07:16:05;;;;;;;16.23;2.67;;;;;;;5.79;100.00;100486.97;5072635;28;20035;-76
2023/01/13 07:18:32;;;;;;;17.65;2.70;;;;;;;5.67;100.00;100474.16;5071471;28;20016;-76
2023/01/13 07:21:00;;;;;;;17.48;3.00;;;;;;;5.69;100.00;100489.66;5085339;28;20030;-76
2023/01/13 07:23:35;;;;;;;12.35;2.90;;;;;;;5.65;100.00;100491.41;5073421;28;20024;-76
2023/01/13 07:26:00;;;;;;;15.65;2.85;;;;;;;5.58;100.00;100500.94;5071659;28;20080;-76
2023/01/13 07:28:27;;;;;;;18.40;3.15;;;;;;;5.49;100.00;100489.81;5071804;28;20464;-76
2023/01/13 07:30:53;;;;;;;21.08;4.18;;;;;;;5.51;100.00;100485.50;5072157;28;20021;-76
2023/01/13 07:33:18;;;;;;;14.10;3.08;;;;;;;5.47;100.00;100484.69;5070985;28;20031;-76
2023/01/13 07:35:45;;;;;;;19.92;3.17;;;;;;;5.37;100.00;100478.72;5072113;28;20112;-76
2023/01/13 07:38:10;;;;;;;13.48;2.78;;;;;;;5.43;100.00;100483.00;5071449;28;20051;-76
2023/01/13 07:40:35;;;;;;;15.55;2.72;;;;;;;5.50;100.00;100486.38;5072181;28;20047;-76
2023/01/13 07:45:45;;;;;;;20.90;2.78;;;;;;;5.34;100.00;100486.50;5071755;28;20189;-76
2023/01/13 07:48:10;;;;;;;27.25;3.17;;;;;;;5.37;100.00;100499.41;5071904;28;20475;-76
2023/01/13 07:50:36;;;;;;;19.25;3.25;;;;;;;5.39;100.00;100491.63;5072313;28;20435;-76
2023/01/13 07:53:01;;;;;;;19.02;3.13;;;;;;;5.36;100.00;100491.63;5071047;28;20139;-76
2023/01/13 07:55:26;;;;;;;16.10;2.92;;;;;;;5.44;100.00;100514.88;5071845;28;20048;-76
2023/01/13 07:57:52;;;;;;;23.73;3.38;;;;;;;5.39;100.00;100507.13;5070880;28;20112;-76
2023/01/13 08:00:17;;;;;;;15.55;2.80;;;;;;;5.38;100.00;100511.44;5070859;28;20483;-76
2023/01/13 08:02:43;;;;;;;22.42;3.28;;;;;;;5.37;100.00;100519.22;5086325;28;20080;-76
2023/01/13 08:05:08;;;;;;;14.50;3.15;;;;;;;5.38;100.00;100519.19;5071802;28;20021;-76
2023/01/13 08:07:34;;;;;;;13.68;2.80;;;;;;;5.27;100.00;100510.69;5070914;28;20514;-76
2023/01/13 08:10:00;;;;;;;16.50;3.63;;;;;;;5.34;100.00;100516.66;5072141;28;20099;-76
2023/01/13 08:15:09;;;;;;;20.88;3.00;;;;;;;5.29;100.00;100521.00;5070927;28;20035;-76
2023/01/13 08:17:35;;;;;;;19.38;3.20;;;;;;;5.35;100.00;100526.13;5071987;28;20020;-76
2023/01/13 08:20:02;;;;;;;18.77;3.40;;;;;;;5.34;100.00;100525.28;5071776;28;20012;-76
2023/01/13 08:22:29;;;;;;;25.65;3.70;;;;;;;5.36;100.00;100523.53;5082149;28;20111;-76
2023/01/13 08:24:55;;;;;;;21.08;4.00;;;;;;;5.39;100.00;100523.53;5074377;28;20027;-76
2023/01/13 08:27:20;;;;;;;17.77;2.85;;;;;;;5.44;100.00;100530.38;5074433;28;20024;-76
2023/01/13 08:29:45;;;;;;;15.05;2.95;;;;;;;5.47;100.00;100520.03;5074925;28;20031;-76
2023/01/13 08:32:11;;;;;;;16.27;2.90;;;;;;;5.44;100.00;100525.22;5075439;28;20098;-76
2023/01/13 08:34:36;;;;;;;22.00;3.50;;;;;;;5.43;100.00;100514.00;5074983;28;20027;-76
2023/01/13 08:37:01;;;;;;;19.63;3.45;;;;;;;5.38;100.00;100508.84;5075367;28;20487;-76
2023/01/13 08:39:27;;;;;;;19.38;2.72;;;;;;;5.36;100.00;100499.41;5075347;28;20028;-76
2023/01/13 08:41:55;;;;;;;23.40;3.80;;;;;;;5.46;100.00;100524.34;5077227;28;20031;-76
2023/01/13 08:44:28;;;;;;;22.92;4.20;;;;;;;5.59;100.00;100509.56;5085833;28;20479;-76
2023/01/13 08:46:54;;;;;;;21.08;3.38;;;;;;;5.73;100.00;100523.25;5075210;28;20103;-76
2023/01/13 08:49:20;;;;;;;19.67;3.60;;;;;;;5.87;100.00;100531.72;5074154;28;20024;-76
2023/01/13 08:51:45;;;;;;;23.40;3.80;;;;;;;6.02;100.00;100524.75;5085387;28;20035;-76
2023/01/13 08:54:12;;;;;;;22.15;4.03;;;;;;;6.08;100.00;100519.47;5077932;28;20072;-75
2023/01/13 08:56:39;;;;;;;19.40;3.30;;;;;;;6.16;100.00;100528.03;5074206;28;20048;-76
2023/01/13 08:59:04;;;;;;;21.10;3.25;;;;;;;6.23;100.00;100540.03;5074807;28;20028;-76
2023/01/13 09:01:30;;;;;;;27.48;4.05;;;;;;;6.32;100.00;100529.59;5074973;28;20070;-76
2023/01/13 09:03:56;;;;;;;24.77;3.78;;;;;;;6.40;100.00;100529.50;5074221;28;20027;-76
2023/01/13 09:06:21;;;;;;;23.90;4.70;;;;;;;6.37;100.00;100529.53;5074442;28;20021;-76
2023/01/13 09:08:46;;;;;;;23.52;4.03;;;;;;;6.31;100.00;100527.88;5075113;28;20055;-76
2023/01/13 09:14:19;;;;;;;21.42;4.47;;;;;;;6.30;100.00;100531.31;5074646;28;20078;-76
2023/01/13 09:16:44;;;;;;;22.38;3.40;;;;;;;6.26;100.00;100528.81;5088058;28;20051;-76
2023/01/13 09:19:09;;;;;;;20.95;3.72;;;;;;;6.33;100.00;100531.28;5074465;28;20107;-76
2023/01/13 09:21:35;;;;;;;19.73;4.38;;;;;;;6.36;100.00;100545.09;5074762;28;20020;-76
2023/01/13 09:24:00;;;;;;;19.55;4.53;;;;;;;6.14;100.00;100496.13;5073973;28;20320;-76
2023/01/13 09:26:25;;;;;;;21.58;5.07;;;;;;;6.38;100.00;100562.34;5074331;28;20051;-76
2023/01/13 09:28:52;;;;;;;22.25;4.03;;;;;;;6.56;100.00;100558.66;5074579;28;20024;-76
2023/01/13 09:31:17;;;;;;;22.73;4.30;;;;;;;6.81;100.00;100569.59;5073439;28;20024;-76
2023/01/13 09:36:28;;;;;;;18.98;3.90;;;;;;;6.99;100.00;100586.66;5074051;28;20438;-76
2023/01/13 09:38:53;;;;;;;18.70;4.47;;;;;;;6.94;100.00;100583.28;5054405;28;20032;-76
2023/01/13 09:44:12;;;;;;;23.15;4.50;;;;;;;6.92;100.00;100592.78;5087677;28;20120;-76
2023/01/13 09:46:56;;;;;;;22.83;3.60;;;;;;;6.95;100.00;100572.88;5073479;28;20051;-76
2023/01/13 09:49:41;;;;;;;25.08;3.88;;;;;;;6.98;100.00;100598.75;5073677;28;20452;-76
2023/01/13 09:52:18;;;;;;;20.67;3.58;;;;;;;6.93;100.00;100591.91;5073276;28;20135;-76
2023/01/13 09:55:10;;;;;;;21.67;4.35;;;;;;;6.86;100.00;100608.41;5074074;28;20047;-76
2023/01/13 09:57:37;;;;;;;27.33;4.70;;;;;;;6.84;100.00;100594.63;5072471;28;20028;-76
2023/01/13 10:00:25;;;;;;;28.45;3.70;;;;;;;6.83;100.00;100606.69;5061455;28;20029;-76
2023/01/13 10:03:16;;;;;;;23.25;3.85;;;;;;;6.91;100.00;100610.06;5073865;28;20013;-76
2023/01/13 10:05:55;;;;;;;19.25;3.58;;;;;;;6.87;100.00;100589.41;5073860;28;20031;-76
2023/01/13 10:08:28;;;;;;;21.95;4.43;;;;;;;6.93;100.00;100600.56;5073381;28;20035;-76
2023/01/13 10:10:56;;;;;;;21.92;4.90;;;;;;;7.06;100.00;100597.78;5073814;28;20028;-76
2023/01/13 10:13:26;;;;;;;22.63;4.13;;;;;;;7.15;100.00;100595.94;5072731;28;20415;-76
2023/01/13 10:16:02;;;;;;;23.27;4.47;;;;;;;7.23;100.00;100594.13;5073662;28;20016;-76
2023/01/13 10:18:59;;;;;;;23.48;4.03;;;;;;;7.54;100.00;100604.03;5054623;28;20044;-76
2023/01/13 10:21:40;;;;;;;16.92;3.90;;;;;;;7.82;100.00;100604.50;5036709;28;20090;-76
2023/01/13 10:24:14;;;;;;;29.92;4.55;;;;;;;8.03;100.00;100603.28;5073271;28;20043;-76
2023/01/13 10:26:46;;;;;;;19.38;4.53;;;;;;;8.02;100.00;100606.75;5073271;28;20032;-76
2023/01/13 10:29:23;;;;;;;25.70;4.70;;;;;;;7.60;100.00;100624.72;5072407;28;20031;-76
2023/01/13 10:31:50;;;;;;;18.98;3.92;;;;;;;7.05;100.00;100612.50;5073378;28;20082;-76
2023/01/13 10:34:16;;;;;;;21.75;4.50;;;;;;;6.75;100.00;100635.31;5082210;28;20067;-76
2023/01/13 10:37:27;;;;;;;30.75;5.70;;;;;;;6.55;100.00;100635.53;5076918;28;20060;-76
2023/01/13 10:39:47;;;;;;;20.42;4.55;;;;;;;6.35;100.00;100650.41;5069148;28;20044;-76
2023/01/13 10:42:16;;;;;;;22.85;4.13;;;;;;;6.18;100.00;100650.56;5071999;28;20028;-76
2023/01/13 10:44:55;;;;;;;21.73;5.13;;;;;;;6.06;100.00;100663.59;5073053;28;20024;-76
2023/01/13 10:47:24;;;;;;;26.38;5.75;;;;;;;6.00;100.00;100666.22;5072209;28;20020;-76
2023/01/13 10:50:04;;;;;;;30.70;5.80;;;;;;;5.94;100.00;100651.59;5071980;28;20039;-76
2023/01/13 10:52:32;;;;;;;28.45;5.63;;;;;;;5.94;100.00;100669.69;5072479;28;20052;-76
2023/01/13 10:54:58;;;;;;;26.15;4.60;;;;;;;5.92;100.00;100673.13;5072957;28;20021;-76
2023/01/13 10:57:26;;;;;;;20.45;4.28;;;;;;;5.90;100.00;100669.72;5071741;28;20104;-76
2023/01/13 10:59:52;;;;;;;27.92;5.22;;;;;;;5.96;100.00;100662.78;5060323;28;20025;-76
2023/01/13 11:02:24;;;;;;;29.33;6.15;;;;;;;6.02;100.00;100667.06;5071682;28;20048;-76
2023/01/13 11:04:52;;;;;;;28.75;5.53;;;;;;;6.00;100.00;100668.81;5072761;28;20379;-76
2023/01/13 11:07:27;;;;;;;24.13;5.30;;;;;;;5.96;100.00;100659.34;5072009;28;20459;-76
2023/01/13 11:10:04;;;;;;;20.25;5.10;;;;;;;5.94;100.00;100661.09;5072089;28;20082;-75
2023/01/13 11:12:33;;;;;;;25.45;5.22;;;;;;;6.00;100.00;100661.91;5072394;28;20021;-76
2023/01/13 11:15:03;;;;;;;30.75;4.70;;;;;;;6.01;100.00;100657.56;5072306;28;20471;-76
2023/01/13 11:17:41;;;;;;;20.95;4.40;;;;;;;6.02;100.00;100661.91;5071367;28;20803;-76
2023/01/13 11:20:15;;;;;;;25.73;4.25;;;;;;;6.00;100.00;100674.84;5072517;28;20021;-76
2023/01/13 11:22:46;;;;;;;30.27;5.40;;;;;;;6.02;100.00;100664.50;5072391;28;20079;-76
2023/01/13 11:25:21;;;;;;;23.90;5.05;;;;;;;6.10;100.00;100676.47;5057361;28;20016;-76
2023/01/13 11:27:56;;;;;;;28.20;5.20;;;;;;;6.19;100.00;100664.34;5072311;28;20028;-76
2023/01/13 11:30:35;;;;;;;25.05;4.15;;;;;;;6.22;100.00;100672.94;5071359;28;20157;-76
2023/01/13 11:33:14;;;;;;;27.85;4.20;;;;;;;6.21;100.00;100676.41;5072151;28;20518;-76
2023/01/13 11:35:55;;;;;;;21.98;4.38;;;;;;;6.27;100.00;100686.69;5072396;28;20016;-76
2023/01/13 11:38:46;;;;;;;19.73;4.25;;;;;;;6.20;100.00;100666.91;5087226;28;20032;-76
2023/01/13 11:41:24;;;;;;;23.10;4.63;;;;;;;6.23;100.00;100677.25;5071104;28;20097;-76
2023/01/13 11:44:06;;;;;;;22.05;3.92;;;;;;;6.20;100.00;100692.78;5072255;28;20028;-76
2023/01/13 11:46:32;;;;;;;23.75;4.45;;;;;;;6.23;100.00;100699.69;5071324;28;20107;-76
2023/01/13 11:48:59;;;;;;;21.75;4.68;;;;;;;6.24;100.00;100703.97;5072111;28;20111;-76
2023/01/13 11:51:41;;;;;;;23.38;4.22;;;;;;;6.19;100.00;100688.50;5071356;28;20032;-76
2023/01/13 11:54:16;;;;;;;27.08;5.10;;;;;;;6.23;100.00;100700.53;5071675;28;20036;-76
2023/01/13 11:56:56;;;;;;;20.25;4.72;;;;;;;6.24;100.00;100697.06;5072332;28;20373;-76
2023/01/13 11:59:49;;;;;;;20.38;4.07;;;;;;;6.21;100.00;100694.53;5059304;28;20028;-76
2023/01/13 12:02:43;;;;;;;22.90;3.83;;;;;;;6.24;100.00;100702.25;5074819;28;20103;-76
2023/01/13 12:05:29;;;;;;;18.27;3.65;;;;;;;6.32;100.00;100715.16;5075712;28;20510;-76
2023/01/13 12:08:03;;;;;;;18.40;3.60;;;;;;;6.36;100.00;100721.16;5075879;28;20063;-76
2023/01/13 12:11:05;;;;;;;26.27;4.38;;;;;;;6.33;100.00;100722.91;5075742;28;20055;-76
2023/01/13 12:13:55;;;;;;;22.25;4.28;;;;;;;6.38;100.00;100717.69;5074917;28;20391;-76
2023/01/13 12:16:22;;;;;;;21.08;4.43;;;;;;;6.46;100.00;100718.47;5075639;28;20060;-76
2023/01/13 12:19:06;;;;;;;24.65;4.30;;;;;;;6.65;100.00;100724.34;5075725;28;20079;-76